sensor_id;sensor_type;location;lat;lon;timestamp;P1;durP1;ratioP1;P2;durP2;ratioP2
63259;SDS011;49390;51.380;0.098;2023-07-22T00:00:54;6.80;;;3.10;;
63259;SDS011;49390;51.380;0.098;2023-07-22T00:03:34;7.50;;;3.30;;
63259;SDS011;49390;51.380;0.098;2023-07-22T00:06:05;6.63;;;3.53;;
63259;SDS011;49390;51.380;0.098;2023-07-22T00:08:37;6.13;;;3.40;;
63259;SDS011;49390;51.380;0.098;2023-07-22T00:11:06;9.45;;;3.58;;
63259;SDS011;49390;51.380;0.098;2023-07-22T00:13:34;7.10;;;3.30;;
63259;SDS011;49390;51.380;0.098;2023-07-22T00:16:02;8.00;;;3.33;;
63259;SDS011;49390;51.380;0.098;2023-07-22T00:18:35;8.38;;;3.78;;
63259;SDS011;49390;51.380;0.098;2023-07-22T00:21:03;5.35;;;3.03;;
63259;SDS011;49390;51.380;0.098;2023-07-22T00:23:31;6.13;;;3.17;;
63259;SDS011;49390;51.380;0.098;2023-07-22T00:25:59;6.88;;;3.45;;
63259;SDS011;49390;51.380;0.098;2023-07-22T00:28:27;5.28;;;2.90;;
63259;SDS011;49390;51.380;0.098;2023-07-22T00:30:56;7.97;;;3.20;;
63259;SDS011;49390;51.380;0.098;2023-07-22T00:33:24;6.40;;;3.38;;
63259;SDS011;49390;51.380;0.098;2023-07-22T00:35:52;6.97;;;3.22;;
63259;SDS011;49390;51.380;0.098;2023-07-22T00:38:21;7.75;;;3.45;;
63259;SDS011;49390;51.380;0.098;2023-07-22T00:40:49;5.65;;;3.00;;
63259;SDS011;49390;51.380;0.098;2023-07-22T00:43:17;6.47;;;2.95;;
63259;SDS011;49390;51.380;0.098;2023-07-22T00:45:50;5.90;;;3.00;;
63259;SDS011;49390;51.380;0.098;2023-07-22T00:48:18;6.45;;;3.28;;
63259;SDS011;49390;51.380;0.098;2023-07-22T00:50:47;7.00;;;3.00;;
63259;SDS011;49390;51.380;0.098;2023-07-22T00:53:15;7.28;;;2.95;;
63259;SDS011;49390;51.380;0.098;2023-07-22T00:55:44;5.82;;;2.90;;
63259;SDS011;49390;51.380;0.098;2023-07-22T01:00:44;6.88;;;2.78;;
63259;SDS011;49390;51.380;0.098;2023-07-22T01:03:13;6.85;;;3.00;;
63259;SDS011;49390;51.380;0.098;2023-07-22T01:05:41;8.20;;;2.78;;
63259;SDS011;49390;51.380;0.098;2023-07-22T01:08:09;7.53;;;2.83;;
63259;SDS011;49390;51.380;0.098;2023-07-22T01:10:37;5.32;;;2.88;;
63259;SDS011;49390;51.380;0.098;2023-07-22T01:13:05;6.32;;;3.47;;
63259;SDS011;49390;51.380;0.098;2023-07-22T01:15:33;5.38;;;2.90;;
63259;SDS011;49390;51.380;0.098;2023-07-22T01:18:03;6.13;;;3.03;;
63259;SDS011;49390;51.380;0.098;2023-07-22T01:20:31;6.07;;;2.50;;
63259;SDS011;49390;51.380;0.098;2023-07-22T01:22:59;5.53;;;2.70;;
63259;SDS011;49390;51.380;0.098;2023-07-22T01:25:28;5.03;;;2.70;;
63259;SDS011;49390;51.380;0.098;2023-07-22T01:27:57;6.63;;;2.60;;
63259;SDS011;49390;51.380;0.098;2023-07-22T01:30:25;4.55;;;2.60;;
63259;SDS011;49390;51.380;0.098;2023-07-22T01:32:55;4.40;;;2.50;;
63259;SDS011;49390;51.380;0.098;2023-07-22T01:35:23;4.40;;;2.50;;
63259;SDS011;49390;51.380;0.098;2023-07-22T01:37:51;4.90;;;2.50;;
63259;SDS011;49390;51.380;0.098;2023-07-22T01:40:19;6.20;;;3.00;;
63259;SDS011;49390;51.380;0.098;2023-07-22T01:42:48;5.85;;;2.22;;
63259;SDS011;49390;51.380;0.098;2023-07-22T01:45:16;5.30;;;2.42;;
63259;SDS011;49390;51.380;0.098;2023-07-22T01:47:44;4.93;;;2.78;;
63259;SDS011;49390;51.380;0.098;2023-07-22T01:50:12;5.70;;;2.75;;
63259;SDS011;49390;51.380;0.098;2023-07-22T01:52:40;5.50;;;3.63;;
63259;SDS011;49390;51.380;0.098;2023-07-22T01:55:08;5.60;;;2.50;;
63259;SDS011;49390;51.380;0.098;2023-07-22T01:57:39;6.38;;;2.38;;
63259;SDS011;49390;51.380;0.098;2023-07-22T02:00:08;5.18;;;2.63;;
63259;SDS011;49390;51.380;0.098;2023-07-22T02:02:39;6.63;;;2.30;;
63259;SDS011;49390;51.380;0.098;2023-07-22T02:05:09;5.18;;;2.30;;
63259;SDS011;49390;51.380;0.098;2023-07-22T02:07:38;5.93;;;2.80;;
63259;SDS011;49390;51.380;0.098;2023-07-22T02:10:07;4.10;;;2.20;;
63259;SDS011;49390;51.380;0.098;2023-07-22T02:12:37;5.93;;;2.40;;
63259;SDS011;49390;51.380;0.098;2023-07-22T02:15:05;4.60;;;2.45;;
63259;SDS011;49390;51.380;0.098;2023-07-22T02:17:36;5.38;;;2.60;;
63259;SDS011;49390;51.380;0.098;2023-07-22T02:20:05;5.85;;;2.70;;
63259;SDS011;49390;51.380;0.098;2023-07-22T02:22:36;6.05;;;2.60;;
63259;SDS011;49390;51.380;0.098;2023-07-22T02:25:04;6.72;;;2.58;;
63259;SDS011;49390;51.380;0.098;2023-07-22T02:27:33;4.82;;;2.70;;
63259;SDS011;49390;51.380;0.098;2023-07-22T02:30:02;6.15;;;2.80;;
63259;SDS011;49390;51.380;0.098;2023-07-22T02:32:32;5.60;;;2.58;;
63259;SDS011;49390;51.380;0.098;2023-07-22T02:34:59;5.85;;;2.63;;
63259;SDS011;49390;51.380;0.098;2023-07-22T02:37:28;5.38;;;2.55;;
63259;SDS011;49390;51.380;0.098;2023-07-22T02:39:56;6.50;;;2.70;;
63259;SDS011;49390;51.380;0.098;2023-07-22T02:42:24;7.13;;;2.70;;
63259;SDS011;49390;51.380;0.098;2023-07-22T02:44:52;4.65;;;2.70;;
63259;SDS011;49390;51.380;0.098;2023-07-22T02:47:20;6.00;;;2.88;;
63259;SDS011;49390;51.380;0.098;2023-07-22T02:49:47;6.22;;;3.03;;
63259;SDS011;49390;51.380;0.098;2023-07-22T02:52:16;7.15;;;3.00;;
63259;SDS011;49390;51.380;0.098;2023-07-22T02:54:53;6.00;;;2.90;;
63259;SDS011;49390;51.380;0.098;2023-07-22T02:57:41;6.15;;;2.97;;
63259;SDS011;49390;51.380;0.098;2023-07-22T03:00:09;7.95;;;2.95;;
63259;SDS011;49390;51.380;0.098;2023-07-22T03:05:08;6.35;;;2.83;;
63259;SDS011;49390;51.380;0.098;2023-07-22T03:07:37;5.97;;;2.67;;
63259;SDS011;49390;51.380;0.098;2023-07-22T03:10:06;5.80;;;3.05;;
63259;SDS011;49390;51.380;0.098;2023-07-22T03:12:35;5.28;;;2.40;;
63259;SDS011;49390;51.380;0.098;2023-07-22T03:15:03;7.80;;;2.78;;
63259;SDS011;49390;51.380;0.098;2023-07-22T03:17:36;5.90;;;2.67;;
63259;SDS011;49390;51.380;0.098;2023-07-22T03:22:38;5.95;;;2.60;;
63259;SDS011;49390;51.380;0.098;2023-07-22T03:25:05;6.68;;;2.63;;
63259;SDS011;49390;51.380;0.098;2023-07-22T03:27:39;5.75;;;2.55;;
63259;SDS011;49390;51.380;0.098;2023-07-22T03:30:11;6.25;;;2.78;;
63259;SDS011;49390;51.380;0.098;2023-07-22T03:32:47;6.05;;;2.50;;
63259;SDS011;49390;51.380;0.098;2023-07-22T03:35:17;5.47;;;2.45;;
63259;SDS011;49390;51.380;0.098;2023-07-22T03:37:46;5.32;;;2.70;;
63259;SDS011;49390;51.380;0.098;2023-07-22T03:40:14;5.82;;;2.75;;
63259;SDS011;49390;51.380;0.098;2023-07-22T03:42:54;6.10;;;2.78;;
63259;SDS011;49390;51.380;0.098;2023-07-22T03:45:23;4.88;;;2.60;;
63259;SDS011;49390;51.380;0.098;2023-07-22T03:47:56;3.67;;;2.25;;
63259;SDS011;49390;51.380;0.098;2023-07-22T03:50:26;5.40;;;2.72;;
63259;SDS011;49390;51.380;0.098;2023-07-22T03:52:54;6.05;;;2.50;;
63259;SDS011;49390;51.380;0.098;2023-07-22T03:55:23;5.20;;;2.55;;
63259;SDS011;49390;51.380;0.098;2023-07-22T03:57:51;7.05;;;2.90;;
63259;SDS011;49390;51.380;0.098;2023-07-22T04:00:21;5.53;;;2.92;;
63259;SDS011;49390;51.380;0.098;2023-07-22T04:02:49;6.15;;;2.60;;
63259;SDS011;49390;51.380;0.098;2023-07-22T04:05:17;5.68;;;2.40;;
63259;SDS011;49390;51.380;0.098;2023-07-22T04:07:50;5.38;;;2.63;;
63259;SDS011;49390;51.380;0.098;2023-07-22T04:10:18;5.80;;;2.47;;
63259;SDS011;49390;51.380;0.098;2023-07-22T04:12:46;4.68;;;2.22;;
63259;SDS011;49390;51.380;0.098;2023-07-22T04:15:14;6.10;;;2.63;;
63259;SDS011;49390;51.380;0.098;2023-07-22T04:17:42;6.13;;;2.63;;
63259;SDS011;49390;51.380;0.098;2023-07-22T04:20:10;4.78;;;2.28;;
63259;SDS011;49390;51.380;0.098;2023-07-22T04:22:39;4.70;;;2.22;;
63259;SDS011;49390;51.380;0.098;2023-07-22T04:25:09;5.70;;;2.50;;
63259;SDS011;49390;51.380;0.098;2023-07-22T04:27:37;5.65;;;2.30;;
63259;SDS011;49390;51.380;0.098;2023-07-22T04:30:05;5.72;;;2.40;;
63259;SDS011;49390;51.380;0.098;2023-07-22T04:32:34;5.15;;;2.30;;
63259;SDS011;49390;51.380;0.098;2023-07-22T04:35:02;5.13;;;2.30;;
63259;SDS011;49390;51.380;0.098;2023-07-22T04:37:31;5.68;;;2.47;;
63259;SDS011;49390;51.380;0.098;2023-07-22T04:39:59;4.55;;;2.33;;
63259;SDS011;49390;51.380;0.098;2023-07-22T04:42:27;5.38;;;2.22;;
63259;SDS011;49390;51.380;0.098;2023-07-22T04:44:55;4.55;;;2.30;;
63259;SDS011;49390;51.380;0.098;2023-07-22T04:47:23;4.30;;;2.20;;
63259;SDS011;49390;51.380;0.098;2023-07-22T04:49:53;4.67;;;2.40;;
63259;SDS011;49390;51.380;0.098;2023-07-22T04:52:21;4.63;;;2.35;;
63259;SDS011;49390;51.380;0.098;2023-07-22T04:54:49;4.80;;;2.10;;
63259;SDS011;49390;51.380;0.098;2023-07-22T04:57:17;3.92;;;2.00;;
63259;SDS011;49390;51.380;0.098;2023-07-22T04:59:48;5.05;;;2.30;;
63259;SDS011;49390;51.380;0.098;2023-07-22T05:02:16;4.30;;;2.00;;
63259;SDS011;49390;51.380;0.098;2023-07-22T05:04:43;5.13;;;2.20;;
63259;SDS011;49390;51.380;0.098;2023-07-22T05:07:12;3.72;;;2.10;;
63259;SDS011;49390;51.380;0.098;2023-07-22T05:09:40;5.25;;;2.47;;
63259;SDS011;49390;51.380;0.098;2023-07-22T05:12:08;4.13;;;2.10;;
63259;SDS011;49390;51.380;0.098;2023-07-22T05:14:36;4.03;;;2.30;;
63259;SDS011;49390;51.380;0.098;2023-07-22T05:17:04;3.90;;;2.00;;
63259;SDS011;49390;51.380;0.098;2023-07-22T05:19:32;4.72;;;2.25;;
63259;SDS011;49390;51.380;0.098;2023-07-22T05:22:00;3.58;;;2.10;;
63259;SDS011;49390;51.380;0.098;2023-07-22T05:24:27;4.72;;;1.95;;
63259;SDS011;49390;51.380;0.098;2023-07-22T05:26:57;4.53;;;2.03;;
63259;SDS011;49390;51.380;0.098;2023-07-22T05:29:35;3.45;;;1.90;;
63259;SDS011;49390;51.380;0.098;2023-07-22T05:32:03;4.18;;;1.90;;
63259;SDS011;49390;51.380;0.098;2023-07-22T05:34:40;4.03;;;1.95;;
63259;SDS011;49390;51.380;0.098;2023-07-22T05:37:08;4.82;;;1.95;;
63259;SDS011;49390;51.380;0.098;2023-07-22T05:39:36;4.93;;;2.05;;
63259;SDS011;49390;51.380;0.098;2023-07-22T05:42:10;7.15;;;2.13;;
63259;SDS011;49390;51.380;0.098;2023-07-22T05:44:38;5.22;;;2.03;;
63259;SDS011;49390;51.380;0.098;2023-07-22T05:47:07;3.33;;;1.80;;
63259;SDS011;49390;51.380;0.098;2023-07-22T05:49:35;3.92;;;2.05;;
63259;SDS011;49390;51.380;0.098;2023-07-22T05:52:03;4.20;;;2.00;;
63259;SDS011;49390;51.380;0.098;2023-07-22T05:54:31;4.13;;;2.00;;
63259;SDS011;49390;51.380;0.098;2023-07-22T05:56:59;4.15;;;2.03;;
63259;SDS011;49390;51.380;0.098;2023-07-22T05:59:27;5.53;;;2.40;;
63259;SDS011;49390;51.380;0.098;2023-07-22T06:01:55;5.15;;;2.20;;
63259;SDS011;49390;51.380;0.098;2023-07-22T06:04:23;5.30;;;2.13;;
63259;SDS011;49390;51.380;0.098;2023-07-22T06:06:51;3.22;;;2.00;;
63259;SDS011;49390;51.380;0.098;2023-07-22T06:09:19;4.10;;;2.30;;
63259;SDS011;49390;51.380;0.098;2023-07-22T06:11:48;4.00;;;2.00;;
63259;SDS011;49390;51.380;0.098;2023-07-22T06:14:16;4.28;;;2.13;;
63259;SDS011;49390;51.380;0.098;2023-07-22T06:16:44;3.78;;;2.03;;
63259;SDS011;49390;51.380;0.098;2023-07-22T06:19:15;7.93;;;2.50;;
63259;SDS011;49390;51.380;0.098;2023-07-22T06:21:43;4.65;;;2.30;;
63259;SDS011;49390;51.380;0.098;2023-07-22T06:24:11;5.30;;;2.50;;
63259;SDS011;49390;51.380;0.098;2023-07-22T06:26:39;5.97;;;2.53;;
63259;SDS011;49390;51.380;0.098;2023-07-22T06:29:07;4.88;;;2.30;;
63259;SDS011;49390;51.380;0.098;2023-07-22T06:31:35;5.45;;;2.60;;
63259;SDS011;49390;51.380;0.098;2023-07-22T06:34:03;6.07;;;2.53;;
63259;SDS011;49390;51.380;0.098;2023-07-22T06:36:31;4.75;;;2.38;;
63259;SDS011;49390;51.380;0.098;2023-07-22T06:38:59;4.65;;;2.22;;
63259;SDS011;49390;51.380;0.098;2023-07-22T06:41:28;4.18;;;2.30;;
63259;SDS011;49390;51.380;0.098;2023-07-22T06:43:58;5.45;;;2.38;;
63259;SDS011;49390;51.380;0.098;2023-07-22T06:46:27;8.10;;;2.65;;
63259;SDS011;49390;51.380;0.098;2023-07-22T06:48:57;5.95;;;2.60;;
63259;SDS011;49390;51.380;0.098;2023-07-22T06:51:26;4.60;;;2.63;;
63259;SDS011;49390;51.380;0.098;2023-07-22T06:53:54;5.78;;;2.75;;
63259;SDS011;49390;51.380;0.098;2023-07-22T06:56:22;5.03;;;2.40;;
63259;SDS011;49390;51.380;0.098;2023-07-22T06:58:50;5.10;;;2.33;;
63259;SDS011;49390;51.380;0.098;2023-07-22T07:01:21;4.60;;;2.42;;
63259;SDS011;49390;51.380;0.098;2023-07-22T07:03:49;5.45;;;2.17;;
63259;SDS011;49390;51.380;0.098;2023-07-22T07:06:17;4.93;;;2.30;;
63259;SDS011;49390;51.380;0.098;2023-07-22T07:08:48;8.57;;;3.13;;
63259;SDS011;49390;51.380;0.098;2023-07-22T07:11:16;6.90;;;2.75;;
63259;SDS011;49390;51.380;0.098;2023-07-22T07:13:44;4.93;;;2.40;;
63259;SDS011;49390;51.380;0.098;2023-07-22T07:16:22;5.72;;;2.80;;
63259;SDS011;49390;51.380;0.098;2023-07-22T07:18:52;9.50;;;2.97;;
63259;SDS011;49390;51.380;0.098;2023-07-22T07:21:22;5.70;;;2.60;;
63259;SDS011;49390;51.380;0.098;2023-07-22T07:23:51;4.97;;;2.45;;
63259;SDS011;49390;51.380;0.098;2023-07-22T07:26:20;3.95;;;2.28;;
63259;SDS011;49390;51.380;0.098;2023-07-22T07:28:49;4.75;;;2.35;;
63259;SDS011;49390;51.380;0.098;2023-07-22T07:31:18;6.82;;;2.85;;
63259;SDS011;49390;51.380;0.098;2023-07-22T07:33:47;6.22;;;2.50;;
63259;SDS011;49390;51.380;0.098;2023-07-22T07:36:15;4.47;;;2.30;;
63259;SDS011;49390;51.380;0.098;2023-07-22T07:38:43;4.78;;;2.10;;
63259;SDS011;49390;51.380;0.098;2023-07-22T07:41:11;4.25;;;2.30;;
63259;SDS011;49390;51.380;0.098;2023-07-22T07:43:40;4.38;;;2.13;;
63259;SDS011;49390;51.380;0.098;2023-07-22T07:46:21;6.85;;;2.35;;
63259;SDS011;49390;51.380;0.098;2023-07-22T07:48:51;3.63;;;1.90;;
63259;SDS011;49390;51.380;0.098;2023-07-22T07:51:24;3.80;;;1.80;;
63259;SDS011;49390;51.380;0.098;2023-07-22T07:53:54;4.25;;;2.00;;
63259;SDS011;49390;51.380;0.098;2023-07-22T07:56:23;5.90;;;2.10;;
63259;SDS011;49390;51.380;0.098;2023-07-22T07:58:54;4.30;;;2.00;;
63259;SDS011;49390;51.380;0.098;2023-07-22T08:01:22;4.38;;;2.00;;
63259;SDS011;49390;51.380;0.098;2023-07-22T08:03:52;3.33;;;1.98;;
63259;SDS011;49390;51.380;0.098;2023-07-22T08:06:21;4.28;;;2.10;;
63259;SDS011;49390;51.380;0.098;2023-07-22T08:08:49;5.07;;;2.00;;
63259;SDS011;49390;51.380;0.098;2023-07-22T08:11:17;3.38;;;1.90;;
63259;SDS011;49390;51.380;0.098;2023-07-22T08:13:45;4.05;;;1.80;;
63259;SDS011;49390;51.380;0.098;2023-07-22T08:16:14;3.60;;;1.95;;
63259;SDS011;49390;51.380;0.098;2023-07-22T08:18:42;5.88;;;2.38;;
63259;SDS011;49390;51.380;0.098;2023-07-22T08:21:11;4.50;;;1.98;;
63259;SDS011;49390;51.380;0.098;2023-07-22T08:23:38;4.28;;;2.05;;
63259;SDS011;49390;51.380;0.098;2023-07-22T08:26:07;3.92;;;2.05;;
63259;SDS011;49390;51.380;0.098;2023-07-22T08:28:40;3.22;;;1.83;;
63259;SDS011;49390;51.380;0.098;2023-07-22T08:31:08;6.95;;;1.92;;
63259;SDS011;49390;51.380;0.098;2023-07-22T08:33:38;3.15;;;1.70;;
63259;SDS011;49390;51.380;0.098;2023-07-22T08:36:08;5.40;;;1.95;;
63259;SDS011;49390;51.380;0.098;2023-07-22T08:38:36;3.75;;;1.70;;
63259;SDS011;49390;51.380;0.098;2023-07-22T08:41:05;2.88;;;1.70;;
63259;SDS011;49390;51.380;0.098;2023-07-22T08:43:33;3.20;;;1.80;;
63259;SDS011;49390;51.380;0.098;2023-07-22T08:46:06;5.10;;;2.20;;
63259;SDS011;49390;51.380;0.098;2023-07-22T08:48:35;4.68;;;2.00;;
63259;SDS011;49390;51.380;0.098;2023-07-22T08:51:08;4.32;;;1.80;;
63259;SDS011;49390;51.380;0.098;2023-07-22T08:53:39;3.50;;;1.88;;
63259;SDS011;49390;51.380;0.098;2023-07-22T08:56:09;5.63;;;2.30;;
63259;SDS011;49390;51.380;0.098;2023-07-22T08:58:38;5.38;;;2.28;;
63259;SDS011;49390;51.380;0.098;2023-07-22T09:01:13;3.08;;;1.83;;
63259;SDS011;49390;51.380;0.098;2023-07-22T09:03:42;4.45;;;2.25;;
63259;SDS011;49390;51.380;0.098;2023-07-22T09:06:11;4.07;;;1.88;;
63259;SDS011;49390;51.380;0.098;2023-07-22T09:08:39;3.80;;;1.92;;
63259;SDS011;49390;51.380;0.098;2023-07-22T09:11:09;4.53;;;2.30;;
63259;SDS011;49390;51.380;0.098;2023-07-22T09:13:41;3.28;;;1.90;;
63259;SDS011;49390;51.380;0.098;2023-07-22T09:16:13;4.05;;;1.90;;
63259;SDS011;49390;51.380;0.098;2023-07-22T09:18:57;5.30;;;2.30;;
63259;SDS011;49390;51.380;0.098;2023-07-22T09:21:25;4.65;;;2.55;;
63259;SDS011;49390;51.380;0.098;2023-07-22T09:23:55;5.45;;;2.38;;
63259;SDS011;49390;51.380;0.098;2023-07-22T09:26:23;5.25;;;2.15;;
63259;SDS011;49390;51.380;0.098;2023-07-22T09:28:58;4.10;;;2.17;;
63259;SDS011;49390;51.380;0.098;2023-07-22T09:31:28;5.22;;;2.40;;
63259;SDS011;49390;51.380;0.098;2023-07-22T09:34:08;5.88;;;2.47;;
63259;SDS011;49390;51.380;0.098;2023-07-22T09:36:52;5.55;;;2.40;;
63259;SDS011;49390;51.380;0.098;2023-07-22T09:39:24;6.15;;;2.20;;
63259;SDS011;49390;51.380;0.098;2023-07-22T09:41:52;8.20;;;2.55;;
63259;SDS011;49390;51.380;0.098;2023-07-22T09:44:20;7.15;;;2.70;;
63259;SDS011;49390;51.380;0.098;2023-07-22T09:46:55;5.97;;;2.53;;
63259;SDS011;49390;51.380;0.098;2023-07-22T09:49:23;5.18;;;2.22;;
63259;SDS011;49390;51.380;0.098;2023-07-22T09:54:21;4.13;;;2.25;;
63259;SDS011;49390;51.380;0.098;2023-07-22T09:56:49;5.28;;;2.22;;
63259;SDS011;49390;51.380;0.098;2023-07-22T09:59:17;7.95;;;2.33;;
63259;SDS011;49390;51.380;0.098;2023-07-22T10:01:47;5.00;;;2.22;;
63259;SDS011;49390;51.380;0.098;2023-07-22T10:04:17;6.70;;;2.45;;
63259;SDS011;49390;51.380;0.098;2023-07-22T10:06:48;4.93;;;2.30;;
63259;SDS011;49390;51.380;0.098;2023-07-22T10:09:16;7.18;;;2.50;;
63259;SDS011;49390;51.380;0.098;2023-07-22T10:11:45;4.43;;;2.35;;
63259;SDS011;49390;51.380;0.098;2023-07-22T10:14:13;6.13;;;2.80;;
63259;SDS011;49390;51.380;0.098;2023-07-22T10:16:42;5.60;;;2.58;;
63259;SDS011;49390;51.380;0.098;2023-07-22T10:19:10;6.30;;;2.53;;
63259;SDS011;49390;51.380;0.098;2023-07-22T10:21:38;4.05;;;2.20;;
63259;SDS011;49390;51.380;0.098;2023-07-22T10:24:07;6.03;;;2.40;;
63259;SDS011;49390;51.380;0.098;2023-07-22T10:26:37;4.18;;;2.15;;
63259;SDS011;49390;51.380;0.098;2023-07-22T10:29:14;5.68;;;2.50;;
63259;SDS011;49390;51.380;0.098;2023-07-22T10:31:42;4.85;;;2.30;;
63259;SDS011;49390;51.380;0.098;2023-07-22T10:34:12;4.38;;;2.55;;
63259;SDS011;49390;51.380;0.098;2023-07-22T10:36:43;5.57;;;2.78;;
63259;SDS011;49390;51.380;0.098;2023-07-22T10:39:17;6.07;;;2.83;;
63259;SDS011;49390;51.380;0.098;2023-07-22T10:42:02;5.55;;;2.45;;
63259;SDS011;49390;51.380;0.098;2023-07-22T10:44:37;6.60;;;2.92;;
63259;SDS011;49390;51.380;0.098;2023-07-22T10:47:07;6.38;;;2.60;;
63259;SDS011;49390;51.380;0.098;2023-07-22T10:49:45;6.95;;;2.78;;
63259;SDS011;49390;51.380;0.098;2023-07-22T10:52:14;5.43;;;2.60;;
63259;SDS011;49390;51.380;0.098;2023-07-22T10:55:02;9.27;;;2.42;;
63259;SDS011;49390;51.380;0.098;2023-07-22T10:57:31;6.65;;;2.53;;
63259;SDS011;49390;51.380;0.098;2023-07-22T11:00:00;5.40;;;2.50;;
63259;SDS011;49390;51.380;0.098;2023-07-22T11:02:31;7.15;;;2.40;;
63259;SDS011;49390;51.380;0.098;2023-07-22T11:05:02;6.30;;;2.40;;
63259;SDS011;49390;51.380;0.098;2023-07-22T11:07:34;7.63;;;2.78;;
63259;SDS011;49390;51.380;0.098;2023-07-22T11:10:18;4.47;;;2.08;;
63259;SDS011;49390;51.380;0.098;2023-07-22T11:12:46;5.68;;;2.30;;
63259;SDS011;49390;51.380;0.098;2023-07-22T11:15:16;4.28;;;2.22;;
63259;SDS011;49390;51.380;0.098;2023-07-22T11:17:45;4.65;;;2.17;;
63259;SDS011;49390;51.380;0.098;2023-07-22T11:20:13;5.43;;;2.35;;
63259;SDS011;49390;51.380;0.098;2023-07-22T11:22:43;5.95;;;2.17;;
63259;SDS011;49390;51.380;0.098;2023-07-22T11:25:18;5.20;;;2.10;;
63259;SDS011;49390;51.380;0.098;2023-07-22T11:27:46;3.75;;;2.00;;
63259;SDS011;49390;51.380;0.098;2023-07-22T11:30:14;5.53;;;2.20;;
63259;SDS011;49390;51.380;0.098;2023-07-22T11:32:42;5.45;;;2.05;;
63259;SDS011;49390;51.380;0.098;2023-07-22T11:35:15;6.05;;;2.10;;
63259;SDS011;49390;51.380;0.098;2023-07-22T11:37:44;6.05;;;2.30;;
63259;SDS011;49390;51.380;0.098;2023-07-22T11:40:12;5.32;;;2.22;;
63259;SDS011;49390;51.380;0.098;2023-07-22T11:42:44;3.53;;;2.20;;
63259;SDS011;49390;51.380;0.098;2023-07-22T11:45:17;4.32;;;2.28;;
63259;SDS011;49390;51.380;0.098;2023-07-22T11:47:45;4.93;;;2.40;;
63259;SDS011;49390;51.380;0.098;2023-07-22T11:50:13;3.35;;;2.08;;
63259;SDS011;49390;51.380;0.098;2023-07-22T11:52:41;5.50;;;2.35;;
63259;SDS011;49390;51.380;0.098;2023-07-22T11:55:09;7.38;;;2.70;;
63259;SDS011;49390;51.380;0.098;2023-07-22T11:57:52;6.18;;;2.60;;
63259;SDS011;49390;51.380;0.098;2023-07-22T12:00:21;5.20;;;2.97;;
63259;SDS011;49390;51.380;0.098;2023-07-22T12:02:49;6.15;;;2.70;;
63259;SDS011;49390;51.380;0.098;2023-07-22T12:05:20;5.43;;;2.90;;
63259;SDS011;49390;51.380;0.098;2023-07-22T12:07:49;7.30;;;2.78;;
63259;SDS011;49390;51.380;0.098;2023-07-22T12:10:17;7.95;;;3.22;;
63259;SDS011;49390;51.380;0.098;2023-07-22T12:12:46;5.53;;;2.83;;
63259;SDS011;49390;51.380;0.098;2023-07-22T12:15:19;6.95;;;3.00;;
63259;SDS011;49390;51.380;0.098;2023-07-22T12:17:59;6.63;;;2.85;;
63259;SDS011;49390;51.380;0.098;2023-07-22T12:20:29;6.68;;;3.40;;
63259;SDS011;49390;51.380;0.098;2023-07-22T12:22:58;7.68;;;3.28;;
63259;SDS011;49390;51.380;0.098;2023-07-22T12:25:27;6.25;;;3.35;;
63259;SDS011;49390;51.380;0.098;2023-07-22T12:27:58;7.30;;;3.33;;
63259;SDS011;49390;51.380;0.098;2023-07-22T12:30:27;6.47;;;2.97;;
63259;SDS011;49390;51.380;0.098;2023-07-22T12:32:55;7.40;;;3.63;;
63259;SDS011;49390;51.380;0.098;2023-07-22T12:35:23;8.23;;;4.00;;
63259;SDS011;49390;51.380;0.098;2023-07-22T12:37:51;8.90;;;3.60;;
63259;SDS011;49390;51.380;0.098;2023-07-22T12:40:19;7.60;;;3.47;;
63259;SDS011;49390;51.380;0.098;2023-07-22T12:42:48;8.52;;;3.45;;
63259;SDS011;49390;51.380;0.098;2023-07-22T12:45:16;10.55;;;3.55;;
63259;SDS011;49390;51.380;0.098;2023-07-22T12:47:44;6.90;;;3.67;;
63259;SDS011;49390;51.380;0.098;2023-07-22T12:50:12;6.82;;;3.15;;
63259;SDS011;49390;51.380;0.098;2023-07-22T12:52:42;6.60;;;3.33;;
63259;SDS011;49390;51.380;0.098;2023-07-22T12:55:13;6.80;;;3.22;;
63259;SDS011;49390;51.380;0.098;2023-07-22T12:57:41;7.83;;;3.63;;
63259;SDS011;49390;51.380;0.098;2023-07-22T13:00:09;7.35;;;3.30;;
63259;SDS011;49390;51.380;0.098;2023-07-22T13:02:39;7.80;;;3.50;;
63259;SDS011;49390;51.380;0.098;2023-07-22T13:05:07;5.95;;;3.00;;
63259;SDS011;49390;51.380;0.098;2023-07-22T13:07:35;7.75;;;4.00;;
63259;SDS011;49390;51.380;0.098;2023-07-22T13:10:03;7.18;;;3.33;;
63259;SDS011;49390;51.380;0.098;2023-07-22T13:12:38;10.35;;;3.88;;
63259;SDS011;49390;51.380;0.098;2023-07-22T13:15:07;8.07;;;3.50;;
63259;SDS011;49390;51.380;0.098;2023-07-22T13:17:35;6.28;;;3.10;;
63259;SDS011;49390;51.380;0.098;2023-07-22T13:20:04;9.85;;;3.72;;
63259;SDS011;49390;51.380;0.098;2023-07-22T13:22:40;7.30;;;3.58;;
63259;SDS011;49390;51.380;0.098;2023-07-22T13:25:08;8.75;;;4.03;;
63259;SDS011;49390;51.380;0.098;2023-07-22T13:27:38;8.38;;;3.90;;
63259;SDS011;49390;51.380;0.098;2023-07-22T13:30:08;9.23;;;3.60;;
63259;SDS011;49390;51.380;0.098;2023-07-22T13:32:36;8.13;;;3.78;;
63259;SDS011;49390;51.380;0.098;2023-07-22T13:35:07;6.75;;;3.60;;
63259;SDS011;49390;51.380;0.098;2023-07-22T13:37:36;7.57;;;3.60;;
63259;SDS011;49390;51.380;0.098;2023-07-22T13:40:05;9.85;;;4.35;;
63259;SDS011;49390;51.380;0.098;2023-07-22T13:42:38;10.55;;;4.50;;
63259;SDS011;49390;51.380;0.098;2023-07-22T13:45:08;9.40;;;3.93;;
63259;SDS011;49390;51.380;0.098;2023-07-22T13:47:41;10.40;;;4.35;;
63259;SDS011;49390;51.380;0.098;2023-07-22T13:50:10;8.20;;;3.83;;
63259;SDS011;49390;51.380;0.098;2023-07-22T13:52:38;10.10;;;4.43;;
63259;SDS011;49390;51.380;0.098;2023-07-22T13:55:07;9.23;;;4.35;;
63259;SDS011;49390;51.380;0.098;2023-07-22T13:57:35;12.40;;;4.60;;
63259;SDS011;49390;51.380;0.098;2023-07-22T14:00:03;9.77;;;4.57;;
63259;SDS011;49390;51.380;0.098;2023-07-22T14:02:38;9.25;;;4.40;;
63259;SDS011;49390;51.380;0.098;2023-07-22T14:05:06;8.65;;;4.18;;
63259;SDS011;49390;51.380;0.098;2023-07-22T14:07:44;11.02;;;4.28;;
63259;SDS011;49390;51.380;0.098;2023-07-22T14:10:15;9.05;;;3.85;;
63259;SDS011;49390;51.380;0.098;2023-07-22T14:12:43;8.10;;;4.10;;
63259;SDS011;49390;51.380;0.098;2023-07-22T14:15:11;8.85;;;4.18;;
63259;SDS011;49390;51.380;0.098;2023-07-22T14:17:39;9.15;;;4.45;;
63259;SDS011;49390;51.380;0.098;2023-07-22T14:20:08;9.23;;;4.50;;
63259;SDS011;49390;51.380;0.098;2023-07-22T14:22:38;9.63;;;3.90;;
63259;SDS011;49390;51.380;0.098;2023-07-22T14:25:06;9.38;;;4.13;;
63259;SDS011;49390;51.380;0.098;2023-07-22T14:27:35;14.85;;;4.07;;
63259;SDS011;49390;51.380;0.098;2023-07-22T14:30:05;8.07;;;3.90;;
63259;SDS011;49390;51.380;0.098;2023-07-22T14:32:34;6.75;;;3.33;;
63259;SDS011;49390;51.380;0.098;2023-07-22T14:35:03;8.75;;;3.90;;
63259;SDS011;49390;51.380;0.098;2023-07-22T14:37:31;8.35;;;3.88;;
63259;SDS011;49390;51.380;0.098;2023-07-22T14:40:00;7.97;;;3.30;;
63259;SDS011;49390;51.380;0.098;2023-07-22T14:42:28;8.55;;;4.15;;
63259;SDS011;49390;51.380;0.098;2023-07-22T14:44:56;7.15;;;3.40;;
63259;SDS011;49390;51.380;0.098;2023-07-22T14:47:26;9.55;;;4.25;;
63259;SDS011;49390;51.380;0.098;2023-07-22T14:49:54;9.53;;;4.33;;
63259;SDS011;49390;51.380;0.098;2023-07-22T14:52:22;10.57;;;4.50;;
63259;SDS011;49390;51.380;0.098;2023-07-22T14:54:50;10.00;;;4.07;;
63259;SDS011;49390;51.380;0.098;2023-07-22T14:57:18;11.50;;;4.90;;
63259;SDS011;49390;51.380;0.098;2023-07-22T14:59:46;10.57;;;5.03;;
63259;SDS011;49390;51.380;0.098;2023-07-22T15:02:14;9.30;;;4.85;;
63259;SDS011;49390;51.380;0.098;2023-07-22T15:04:42;11.15;;;4.38;;
63259;SDS011;49390;51.380;0.098;2023-07-22T15:07:10;10.43;;;4.97;;
63259;SDS011;49390;51.380;0.098;2023-07-22T15:09:41;9.80;;;4.68;;
63259;SDS011;49390;51.380;0.098;2023-07-22T15:12:14;9.43;;;4.47;;